Time;durP1;ratioP1;P1;durP2;ratioP2;P2;SDS_P1;SDS_P2;PMS_P1;PMS_P2;Temp;Humidity;BMP_temperature;BMP_pressure;BME280_temperature;BME280_humidity;BME280_pressure;Samples;Min_cycle;Max_cycle;Signal;HPM_P1;HPM_P2
2023/04/05 00:01:06;;;;;;;12.02;8.75;;;;;;;;;;5054245;28;20647;-62
2023/04/05 00:03:34;;;;;;;12.50;9.90;;;;;;;;;;5053846;28;20189;-62
2023/04/05 00:06:01;;;;;;;9.65;7.88;;;;;;;;;;5054136;28;20222;-62
2023/04/05 00:08:28;;;;;;;14.52;8.65;;;;;;;;;;5054098;28;20203;-62
2023/04/05 00:10:55;;;;;;;9.95;7.55;;;;;;;;;;5054005;28;20192;-62
2023/04/05 00:13:24;;;;;;;10.55;8.32;;;;;;;;;;5053934;28;20578;-62
2023/04/05 00:15:51;;;;;;;13.77;8.85;;;;;;;;;;5053756;28;20197;-62
2023/04/05 00:18:22;;;;;;;11.75;7.80;;;;;;;;;;5054007;28;20301;-61
2023/04/05 00:20:49;;;;;;;10.05;7.03;;;;;;;;;;5053873;28;20192;-62
2023/04/05 00:23:16;;;;;;;8.18;6.43;;;;;;;;;;5053868;28;20213;-62
2023/04/05 00:25:43;;;;;;;8.90;7.10;;;;;;;;;;5053624;28;20209;-61
2023/04/05 00:28:10;;;;;;;9.88;7.70;;;;;;;;;;5053432;28;20247;-62
2023/04/05 00:30:38;;;;;;;12.05;7.13;;;;;;;;;;5053445;28;20652;-62
2023/04/05 00:33:05;;;;;;;9.82;7.78;;;;;;;;;;5053260;28;20193;-62
2023/04/05 00:35:32;;;;;;;10.60;6.93;;;;;;;;;;5053623;28;20283;-61
2023/04/05 00:37:59;;;;;;;9.13;6.45;;;;;;;;;;5053450;28;20201;-62
2023/04/05 00:40:26;;;;;;;6.05;5.45;;;;;;;;;;5053532;28;20224;-62
2023/04/05 00:42:53;;;;;;;8.30;6.32;;;;;;;;;;5053296;28;20600;-62
2023/04/05 00:45:20;;;;;;;7.47;6.00;;;;;;;;;;5052885;28;20321;-62
2023/04/05 00:47:49;;;;;;;7.90;6.50;;;;;;;;;;5053267;28;20225;-62
2023/04/05 00:50:17;;;;;;;7.80;6.65;;;;;;;;;;5053271;28;20193;-62
2023/04/05 00:52:44;;;;;;;9.68;5.70;;;;;;;;;;5053198;28;20203;-62
2023/04/05 00:55:12;;;;;;;8.57;6.20;;;;;;;;;;5053197;28;20226;-62
2023/04/05 00:57:39;;;;;;;6.95;6.05;;;;;;;;;;5053098;28;20189;-62
2023/04/05 01:00:08;;;;;;;11.27;6.38;;;;;;;;;;5053330;28;20189;-62
2023/04/05 01:02:38;;;;;;;9.32;6.63;;;;;;;;;;5053157;28;20193;-62
2023/04/05 01:05:10;;;;;;;10.13;6.53;;;;;;;;;;5052829;28;20619;-62
2023/04/05 01:07:41;;;;;;;9.95;6.75;;;;;;;;;;5052620;28;20262;-62
2023/04/05 01:10:10;;;;;;;5.93;5.03;;;;;;;;;;5052530;28;20553;-61
2023/04/05 01:12:37;;;;;;;7.50;6.75;;;;;;;;;;5052636;28;20334;-62
2023/04/05 01:15:05;;;;;;;7.60;6.78;;;;;;;;;;5052577;28;20193;-62
2023/04/05 01:17:37;;;;;;;7.88;6.10;;;;;;;;;;5052470;28;20204;-62
2023/04/05 01:20:09;;;;;;;5.85;5.35;;;;;;;;;;5052525;28;20225;-62
2023/04/05 01:22:55;;;;;;;5.38;4.88;;;;;;;;;;5052319;28;20691;-61
2023/04/05 01:25:42;;;;;;;6.03;4.40;;;;;;;;;;5052346;28;20673;-62
2023/04/05 01:28:15;;;;;;;5.95;4.60;;;;;;;;;;5052345;28;20246;-62
2023/04/05 01:30:45;;;;;;;6.30;4.72;;;;;;;;;;5052200;28;20283;-62
2023/04/05 01:33:15;;;;;;;6.88;4.38;;;;;;;;;;5052221;28;20197;-62
2023/04/05 01:35:49;;;;;;;4.75;3.92;;;;;;;;;;5052388;28;20551;-62
2023/04/05 01:38:18;;;;;;;4.75;2.75;;;;;;;;;;5052451;28;20229;-62
2023/04/05 01:40:45;;;;;;;4.97;2.97;;;;;;;;;;5052238;28;20285;-62
2023/04/05 01:43:13;;;;;;;7.25;3.70;;;;;;;;;;5052401;28;20192;-62
2023/04/05 01:45:40;;;;;;;4.80;3.63;;;;;;;;;;5056120;28;20203;-63
2023/04/05 01:48:09;;;;;;;3.85;3.55;;;;;;;;;;5056315;28;20216;-62
2023/04/05 01:50:36;;;;;;;3.22;2.92;;;;;;;;;;5056463;28;20250;-62
2023/04/05 01:53:03;;;;;;;3.00;2.80;;;;;;;;;;5056268;28;20276;-62
2023/04/05 01:55:30;;;;;;;4.35;4.05;;;;;;;;;;5056271;28;20648;-62
2023/04/05 01:57:58;;;;;;;11.20;8.50;;;;;;;;;;5056255;28;20613;-62
2023/04/05 02:00:26;;;;;;;9.23;7.45;;;;;;;;;;5056092;28;20652;-62
2023/04/05 02:02:53;;;;;;;11.90;10.15;;;;;;;;;;5056163;28;20223;-62
2023/04/05 02:05:22;;;;;;;15.57;13.90;;;;;;;;;;5056133;28;20194;-62
2023/04/05 02:07:49;;;;;;;16.77;14.25;;;;;;;;;;5055807;28;20242;-62
2023/04/05 02:10:16;;;;;;;9.23;5.13;;;;;;;;;;5055989;28;20242;-62
2023/04/05 02:12:43;;;;;;;3.75;3.53;;;;;;;;;;5055740;28;20683;-62
2023/04/05 02:15:11;;;;;;;5.38;3.75;;;;;;;;;;5055895;28;20275;-62
2023/04/05 02:17:38;;;;;;;5.85;3.58;;;;;;;;;;5055802;28;20228;-62
2023/04/05 02:20:06;;;;;;;4.30;3.58;;;;;;;;;;5055824;28;20197;-62
2023/04/05 02:22:35;;;;;;;6.53;4.45;;;;;;;;;;5055658;28;20608;-62
2023/04/05 02:25:03;;;;;;;5.05;4.40;;;;;;;;;;5055516;28;20193;-62
2023/04/05 02:27:30;;;;;;;5.50;3.83;;;;;;;;;;5055488;28;20223;-62
2023/04/05 02:29:57;;;;;;;3.80;3.33;;;;;;;;;;5055436;28;20231;-62
2023/04/05 02:32:24;;;;;;;3.25;3.05;;;;;;;;;;5055468;28;20288;-62
2023/04/05 02:34:51;;;;;;;7.97;4.85;;;;;;;;;;5055443;28;20684;-62
2023/04/05 02:37:18;;;;;;;6.13;4.00;;;;;;;;;;5055394;28;20201;-62
2023/04/05 02:39:47;;;;;;;4.32;3.47;;;;;;;;;;5055191;28;20595;-62
2023/04/05 02:42:14;;;;;;;4.38;3.70;;;;;;;;;;5055367;28;20284;-62
2023/04/05 02:44:41;;;;;;;3.72;3.42;;;;;;;;;;5054979;28;20307;-62
2023/04/05 02:47:08;;;;;;;5.07;2.65;;;;;;;;;;5055330;28;20788;-62
2023/04/05 02:49:35;;;;;;;4.22;3.35;;;;;;;;;;5055156;28;20203;-62
2023/04/05 02:52:01;;;;;;;5.65;4.25;;;;;;;;;;5055078;28;20194;-62
2023/04/05 02:54:29;;;;;;;4.97;3.75;;;;;;;;;;5054759;28;20273;-62
2023/04/05 02:57:01;;;;;;;4.82;4.10;;;;;;;;;;5055067;28;20223;-62
2023/04/05 02:59:28;;;;;;;4.78;4.30;;;;;;;;;;5055133;28;20228;-62
2023/04/05 03:01:55;;;;;;;7.28;4.93;;;;;;;;;;5054970;28;20212;-62
2023/04/05 03:04:25;;;;;;;5.05;4.10;;;;;;;;;;5054816;28;20288;-62
2023/04/05 03:06:53;;;;;;;4.97;4.15;;;;;;;;;;5054562;28;20193;-62
2023/04/05 03:09:21;;;;;;;7.88;3.35;;;;;;;;;;5054620;28;20194;-62
2023/04/05 03:11:48;;;;;;;8.90;3.45;;;;;;;;;;5054830;28;20197;-62
2023/04/05 03:14:16;;;;;;;4.55;3.50;;;;;;;;;;5054678;28;20196;-62
2023/04/05 03:16:43;;;;;;;4.70;3.65;;;;;;;;;;5054541;28;20193;-62
2023/04/05 03:19:10;;;;;;;4.32;2.88;;;;;;;;;;5054597;28;20189;-62
2023/04/05 03:21:39;;;;;;;8.35;2.70;;;;;;;;;;5054843;28;20288;-62
2023/04/05 03:24:07;;;;;;;4.00;3.10;;;;;;;;;;5054476;28;20603;-62
2023/04/05 03:26:34;;;;;;;3.63;3.30;;;;;;;;;;5054522;28;20557;-62
2023/04/05 03:29:01;;;;;;;4.15;3.45;;;;;;;;;;5054261;28;20235;-62
2023/04/05 03:31:29;;;;;;;4.38;3.83;;;;;;;;;;5054344;28;20190;-62
2023/04/05 03:33:56;;;;;;;10.07;3.50;;;;;;;;;;5054312;28;20295;-62
2023/04/05 03:36:23;;;;;;;6.97;2.83;;;;;;;;;;5054418;28;20529;-62
2023/04/05 03:38:51;;;;;;;5.50;3.47;;;;;;;;;;5054128;28;20839;-62
2023/04/05 03:41:18;;;;;;;5.05;3.33;;;;;;;;;;5054265;28;20190;-62
2023/04/05 03:43:45;;;;;;;4.47;3.22;;;;;;;;;;5053956;28;20232;-62
2023/04/05 03:46:12;;;;;;;5.22;3.25;;;;;;;;;;5053950;28;20198;-62
2023/04/05 03:48:40;;;;;;;2.95;2.63;;;;;;;;;;5053942;28;20255;-62
2023/04/05 03:51:07;;;;;;;6.60;3.30;;;;;;;;;;5054052;28;20300;-62
2023/04/05 03:53:34;;;;;;;6.15;2.97;;;;;;;;;;5053911;28;20676;-62
2023/04/05 03:56:01;;;;;;;5.50;3.40;;;;;;;;;;5054304;28;20200;-61
2023/04/05 03:58:28;;;;;;;5.70;3.30;;;;;;;;;;5053942;28;20556;-61
2023/04/05 04:00:56;;;;;;;6.07;2.85;;;;;;;;;;5053610;28;20616;-61
2023/04/05 04:03:24;;;;;;;3.33;3.03;;;;;;;;;;5053816;28;20192;-61
2023/04/05 04:05:53;;;;;;;5.72;4.15;;;;;;;;;;5053066;28;20653;-61
2023/04/05 04:08:20;;;;;;;7.85;4.55;;;;;;;;;;5053662;28;20229;-61
2023/04/05 04:10:47;;;;;;;7.68;3.67;;;;;;;;;;5053617;28;20193;-61
2023/04/05 04:13:14;;;;;;;5.57;3.45;;;;;;;;;;5053422;28;20377;-61
2023/04/05 04:15:41;;;;;;;7.05;3.58;;;;;;;;;;5053475;28;20274;-61
2023/04/05 04:18:08;;;;;;;5.20;4.05;;;;;;;;;;5053584;28;20189;-61
2023/04/05 04:20:35;;;;;;;7.90;4.75;;;;;;;;;;5053624;28;20292;-61
2023/04/05 04:23:03;;;;;;;5.93;3.90;;;;;;;;;;5053310;28;20285;-61
2023/04/05 04:25:31;;;;;;;5.72;4.63;;;;;;;;;;5053252;28;20190;-61
2023/04/05 04:27:58;;;;;;;8.90;6.13;;;;;;;;;;5053010;28;20220;-61
2023/04/05 04:30:25;;;;;;;10.52;5.70;;;;;;;;;;5052998;28;20560;-61
2023/04/05 04:32:55;;;;;;;16.48;6.60;;;;;;;;;;5053159;28;20625;-61
2023/04/05 04:35:23;;;;;;;9.13;5.72;;;;;;;;;;5053167;28;20197;-61
2023/04/05 04:37:53;;;;;;;8.63;5.75;;;;;;;;;;5052875;28;20201;-61
2023/04/05 04:40:24;;;;;;;8.68;4.80;;;;;;;;;;5053593;28;20526;-61
2023/04/05 04:42:51;;;;;;;10.20;5.43;;;;;;;;;;5052594;28;20661;-60
2023/04/05 04:45:19;;;;;;;7.30;5.20;;;;;;;;;;5052724;28;20305;-61
2023/04/05 04:47:46;;;;;;;7.75;5.18;;;;;;;;;;5052790;28;20324;-61
2023/04/05 04:50:14;;;;;;;7.57;4.20;;;;;;;;;;5052904;28;20212;-61
2023/04/05 04:52:41;;;;;;;8.18;3.88;;;;;;;;;;5052873;28;20195;-61
2023/04/05 04:55:12;;;;;;;6.78;3.60;;;;;;;;;;5052748;28;20202;-61
2023/04/05 04:57:41;;;;;;;8.77;3.75;;;;;;;;;;5053007;28;20204;-62
2023/04/05 05:00:14;;;;;;;10.70;4.80;;;;;;;;;;5052738;28;20201;-61
2023/04/05 05:02:41;;;;;;;4.78;3.97;;;;;;;;;;5052628;28;20604;-61
2023/04/05 05:05:09;;;;;;;5.03;3.90;;;;;;;;;;5052333;28;20644;-61
2023/04/05 05:07:36;;;;;;;4.03;3.60;;;;;;;;;;5052902;28;20236;-61
2023/04/05 05:10:03;;;;;;;5.40;4.15;;;;;;;;;;5052575;28;20277;-61
2023/04/05 05:12:31;;;;;;;4.18;3.78;;;;;;;;;;5052622;28;20220;-61
2023/04/05 05:15:00;;;;;;;5.30;3.90;;;;;;;;;;5052411;28;20232;-61
2023/04/05 05:17:26;;;;;;;4.82;3.38;;;;;;;;;;5051937;28;20193;-61
2023/04/05 05:19:53;;;;;;;10.75;4.43;;;;;;;;;;5051961;28;20300;-61
2023/04/05 05:22:20;;;;;;;4.57;3.60;;;;;;;;;;5052156;28;20657;-61
2023/04/05 05:24:47;;;;;;;6.30;4.07;;;;;;;;;;5052169;28;20684;-61
2023/04/05 05:27:15;;;;;;;5.50;4.35;;;;;;;;;;5052303;28;20537;-61
2023/04/05 05:29:42;;;;;;;5.00;3.50;;;;;;;;;;5052126;28;20244;-61
2023/04/05 05:32:13;;;;;;;9.32;5.28;;;;;;;;;;5052231;28;20217;-61
2023/04/05 05:34:40;;;;;;;8.02;4.53;;;;;;;;;;5052084;28;20197;-61
2023/04/05 05:37:08;;;;;;;9.40;4.75;;;;;;;;;;5052466;28;20197;-61
2023/04/05 05:39:35;;;;;;;5.72;3.92;;;;;;;;;;5052356;28;20219;-61
2023/04/05 05:42:02;;;;;;;5.70;4.45;;;;;;;;;;5052345;28;20610;-61
2023/04/05 05:44:29;;;;;;;6.47;5.05;;;;;;;;;;5051917;28;20236;-61
2023/04/05 05:46:56;;;;;;;8.13;5.57;;;;;;;;;;5052099;28;20194;-61
2023/04/05 05:49:24;;;;;;;8.70;5.72;;;;;;;;;;5051879;28;20604;-61
2023/04/05 05:51:52;;;;;;;9.93;6.68;;;;;;;;;;5051896;28;20600;-61
2023/04/05 05:54:19;;;;;;;12.35;8.15;;;;;;;;;;5052161;28;20194;-61
2023/04/05 05:56:46;;;;;;;11.57;8.32;;;;;;;;;;5052035;28;20545;-61
2023/04/05 05:59:13;;;;;;;10.90;8.18;;;;;;;;;;5052013;28;20287;-61
2023/04/05 06:01:41;;;;;;;9.50;5.85;;;;;;;;;;5052607;28;20248;-61
2023/04/05 06:04:08;;;;;;;8.25;5.03;;;;;;;;;;5052051;28;20229;-61
2023/04/05 06:06:36;;;;;;;7.03;5.18;;;;;;;;;;5052075;28;20540;-61
2023/04/05 06:09:03;;;;;;;13.85;5.70;;;;;;;;;;5051861;28;20283;-61
2023/04/05 06:11:30;;;;;;;7.50;5.05;;;;;;;;;;5051992;28;20190;-61
2023/04/05 06:13:57;;;;;;;10.05;4.90;;;;;;;;;;5051672;28;20233;-61
2023/04/05 06:16:24;;;;;;;11.43;5.82;;;;;;;;;;5051937;28;20281;-61
2023/04/05 06:18:54;;;;;;;18.00;5.85;;;;;;;;;;5052033;28;20193;-61
2023/04/05 06:21:21;;;;;;;4.93;4.40;;;;;;;;;;5051964;28;20235;-61
2023/04/05 06:23:49;;;;;;;7.70;5.55;;;;;;;;;;5051544;28;20197;-61
2023/04/05 06:26:17;;;;;;;4.80;3.60;;;;;;;;;;5051701;28;20266;-61
2023/04/05 06:28:46;;;;;;;4.30;3.90;;;;;;;;;;5051615;28;20215;-61
2023/04/05 06:31:14;;;;;;;5.90;3.40;;;;;;;;;;5055367;28;20201;-61
2023/04/05 06:33:41;;;;;;;4.80;3.75;;;;;;;;;;5055598;28;20190;-61
2023/04/05 06:36:08;;;;;;;5.60;3.45;;;;;;;;;;5055489;28;20567;-61
2023/04/05 06:38:35;;;;;;;16.65;4.80;;;;;;;;;;5055249;28;20286;-61
2023/04/05 06:41:04;;;;;;;4.90;3.30;;;;;;;;;;5055277;28;20293;-60
2023/04/05 06:43:31;;;;;;;8.00;4.10;;;;;;;;;;5054863;28;20225;-60
2023/04/05 06:45:58;;;;;;;6.95;4.60;;;;;;;;;;5055157;28;20549;-61
2023/04/05 06:48:27;;;;;;;11.02;4.10;;;;;;;;;;5055163;28;20215;-61
2023/04/05 06:50:57;;;;;;;4.95;4.45;;;;;;;;;;5055073;28;20198;-62
2023/04/05 06:53:26;;;;;;;10.60;3.30;;;;;;;;;;5055050;28;20216;-60
2023/04/05 06:55:53;;;;;;;4.47;3.65;;;;;;;;;;5054453;28;20190;-61
2023/04/05 06:58:22;;;;;;;7.07;4.40;;;;;;;;;;5055208;28;20285;-60
2023/04/05 07:00:49;;;;;;;13.55;4.45;;;;;;;;;;5054831;28;20248;-61
2023/04/05 07:03:16;;;;;;;6.25;5.20;;;;;;;;;;5054759;28;20190;-61
2023/04/05 07:05:50;;;;;;;9.80;5.88;;;;;;;;;;5054719;28;20197;-61
2023/04/05 07:08:17;;;;;;;5.57;4.05;;;;;;;;;;5056108;28;22162;-61
2023/04/05 07:10:44;;;;;;;7.65;4.65;;;;;;;;;;5073390;28;20288;-61
2023/04/05 07:13:11;;;;;;;9.35;5.35;;;;;;;;;;5072547;28;20743;-61
2023/04/05 07:15:39;;;;;;;6.85;4.70;;;;;;;;;;5076815;28;20716;-61
2023/04/05 07:18:06;;;;;;;7.75;5.78;;;;;;;;;;5084567;28;20276;-61
2023/04/05 07:20:33;;;;;;;9.85;5.47;;;;;;;;;;5094821;28;20192;-61
2023/04/05 07:23:00;;;;;;;8.23;4.70;;;;;;;;;;5094587;28;20193;-61
2023/04/05 07:25:27;;;;;;;7.93;4.40;;;;;;;;;;5094753;28;20184;-61
2023/04/05 07:27:55;;;;;;;7.00;4.95;;;;;;;;;;5094663;28;20538;-61
2023/04/05 07:30:22;;;;;;;11.10;5.83;;;;;;;;;;5094661;28;20277;-61
2023/04/05 07:32:51;;;;;;;7.50;4.63;;;;;;;;;;5094483;28;20539;-61
2023/04/05 07:35:17;;;;;;;6.68;4.80;;;;;;;;;;5094447;28;20550;-61
2023/04/05 07:37:44;;;;;;;6.30;4.82;;;;;;;;;;5087691;28;20270;-60
2023/04/05 07:40:12;;;;;;;8.15;4.75;;;;;;;;;;5073993;28;20251;-61
2023/04/05 07:42:39;;;;;;;9.20;4.75;;;;;;;;;;5073232;28;20219;-61
2023/04/05 07:45:07;;;;;;;6.63;4.17;;;;;;;;;;5074019;28;20213;-61
2023/04/05 07:47:34;;;;;;;7.50;4.70;;;;;;;;;;5074071;28;20467;-61
2023/04/05 07:50:03;;;;;;;5.60;3.93;;;;;;;;;;5073811;28;20981;-61
2023/04/05 07:52:30;;;;;;;11.07;4.20;;;;;;;;;;5074023;28;20506;-60
2023/04/05 07:54:57;;;;;;;6.43;4.13;;;;;;;;;;5073678;28;20474;-60
2023/04/05 07:57:24;;;;;;;4.25;3.80;;;;;;;;;;5074028;28;20607;-60
2023/04/05 07:59:51;;;;;;;5.47;3.75;;;;;;;;;;5073765;28;20280;-59
2023/04/05 08:02:18;;;;;;;4.65;3.42;;;;;;;;;;5073754;28;20235;-61
2023/04/05 08:04:45;;;;;;;3.78;3.30;;;;;;;;;;5073493;28;20190;-61
2023/04/05 08:07:14;;;;;;;4.32;3.63;;;;;;;;;;5073858;28;20276;-61
2023/04/05 08:09:41;;;;;;;5.68;3.10;;;;;;;;;;5073436;28;20229;-61
2023/04/05 08:12:10;;;;;;;5.95;4.07;;;;;;;;;;5073571;28;20281;-60
2023/04/05 08:14:37;;;;;;;4.60;3.70;;;;;;;;;;5073449;28;20205;-61
2023/04/05 08:17:04;;;;;;;4.57;3.17;;;;;;;;;;5073213;28;20654;-61
2023/04/05 08:19:31;;;;;;;4.90;3.25;;;;;;;;;;5073386;28;20189;-60
2023/04/05 08:21:58;;;;;;;4.13;2.83;;;;;;;;;;5073531;28;20251;-60
2023/04/05 08:24:26;;;;;;;4.07;3.10;;;;;;;;;;5073185;28;20225;-61
2023/04/05 08:27:00;;;;;;;5.68;4.05;;;;;;;;;;5073210;28;20613;-64
2023/04/05 08:29:27;;;;;;;5.97;3.63;;;;;;;;;;5090544;28;20544;-61
2023/04/05 08:31:57;;;;;;;3.72;3.35;;;;;;;;;;5093260;28;20189;-61
2023/04/05 08:34:24;;;;;;;5.23;3.40;;;;;;;;;;5093423;28;20197;-61
2023/04/05 08:36:50;;;;;;;6.28;3.92;;;;;;;;;;5093341;28;20893;-61
2023/04/05 08:39:17;;;;;;;10.95;3.30;;;;;;;;;;5093413;28;20288;-61
2023/04/05 08:42:04;;;;;;;6.07;2.85;;;;;;;;;;5093002;28;20250;-61
2023/04/05 08:44:31;;;;;;;3.07;2.77;;;;;;;;;;5092955;28;20277;-60
2023/04/05 08:46:59;;;;;;;4.10;2.73;;;;;;;;;;5093099;28;20450;-61
2023/04/05 08:49:26;;;;;;;6.13;2.80;;;;;;;;;;5083748;28;21057;-61
2023/04/05 08:51:54;;;;;;;2.58;2.30;;;;;;;;;;5072821;28;20543;-61
2023/04/05 08:54:21;;;;;;;6.03;2.40;;;;;;;;;;5072210;28;20267;-61
2023/04/05 08:56:50;;;;;;;3.08;2.15;;;;;;;;;;5090580;28;20443;-60
2023/04/05 08:59:18;;;;;;;2.55;2.35;;;;;;;;;;5082928;28;20192;-60
2023/04/05 09:01:47;;;;;;;3.45;2.45;;;;;;;;;;5072148;28;20291;-61
2023/04/05 09:04:16;;;;;;;7.00;2.80;;;;;;;;;;5072219;28;20190;-60
2023/04/05 09:06:44;;;;;;;3.10;2.80;;;;;;;;;;5072650;28;20518;-61
2023/04/05 09:09:11;;;;;;;3.50;2.00;;;;;;;;;;5052415;28;20214;-61
2023/04/05 09:11:39;;;;;;;4.33;2.83;;;;;;;;;;5052761;28;20876;-61
2023/04/05 09:14:07;;;;;;;3.10;2.77;;;;;;;;;;5052602;28;20811;-60
2023/04/05 09:16:37;;;;;;;4.03;2.50;;;;;;;;;;5052817;28;20995;-60
2023/04/05 09:19:04;;;;;;;2.97;2.67;;;;;;;;;;5052649;28;20456;-60
2023/04/05 09:21:31;;;;;;;3.30;2.50;;;;;;;;;;5056322;28;20535;-60
2023/04/05 09:23:59;;;;;;;3.77;2.30;;;;;;;;;;5072283;28;20444;-60
2023/04/05 09:26:26;;;;;;;3.80;2.70;;;;;;;;;;5072774;28;20548;-61
2023/04/05 09:28:53;;;;;;;2.75;2.30;;;;;;;;;;5072703;28;20806;-61
2023/04/05 09:31:31;;;;;;;4.38;2.75;;;;;;;;;;5072586;28;20185;-60
2023/04/05 09:34:00;;;;;;;3.37;2.13;;;;;;;;;;5072622;28;20182;-60
2023/04/05 09:36:28;;;;;;;3.30;2.30;;;;;;;;;;5072528;28;20990;-60
2023/04/05 09:39:04;;;;;;;2.90;2.10;;;;;;;;;;5072706;28;20444;-60
2023/04/05 09:41:31;;;;;;;2.60;2.20;;;;;;;;;;5072508;28;20807;-60
2023/04/05 09:43:58;;;;;;;4.00;2.47;;;;;;;;;;5073034;28;20467;-60
2023/04/05 09:46:30;;;;;;;4.03;2.47;;;;;;;;;;5071977;28;20440;-60
2023/04/05 09:48:58;;;;;;;2.50;2.13;;;;;;;;;;5072323;28;20918;-60
2023/04/05 09:51:31;;;;;;;5.70;2.47;;;;;;;;;;5072570;28;20480;-60
2023/04/05 09:53:59;;;;;;;2.77;2.20;;;;;;;;;;5072472;28;20543;-60
2023/04/05 09:56:26;;;;;;;2.27;2.00;;;;;;;;;;5072144;28;20458;-60
2023/04/05 09:58:53;;;;;;;4.60;2.50;;;;;;;;;;5072519;28;20448;-60
2023/04/05 10:01:20;;;;;;;2.70;2.07;;;;;;;;;;5072344;28;20625;-61
2023/04/05 10:03:48;;;;;;;2.80;2.27;;;;;;;;;;5072161;28;20509;-61
2023/04/05 10:06:16;;;;;;;2.53;1.90;;;;;;;;;;5076227;28;20490;-60
2023/04/05 10:08:43;;;;;;;6.87;2.23;;;;;;;;;;5076019;28;21057;-60
2023/04/05 10:11:12;;;;;;;2.40;2.17;;;;;;;;;;5076541;28;20479;-60
2023/04/05 10:13:40;;;;;;;3.97;2.17;;;;;;;;;;5076085;28;20454;-60
2023/04/05 10:16:10;;;;;;;6.70;2.40;;;;;;;;;;5076028;28;20943;-60
2023/04/05 10:18:43;;;;;;;3.00;2.10;;;;;;;;;;5076163;28;20448;-61
2023/04/05 10:21:11;;;;;;;2.70;2.23;;;;;;;;;;5076187;28;20831;-60
2023/04/05 10:23:42;;;;;;;3.70;1.60;;;;;;;;;;5075962;28;20448;-60
2023/04/05 10:26:15;;;;;;;2.43;1.67;;;;;;;;;;5075704;28;20965;-60
2023/04/05 10:28:43;;;;;;;2.17;1.40;;;;;;;;;;5075936;28;20480;-60
2023/04/05 10:31:12;;;;;;;2.00;1.80;;;;;;;;;;5075459;28;20490;-61
2023/04/05 10:33:46;;;;;;;2.30;2.10;;;;;;;;;;5075582;28;20935;-61
2023/04/05 10:36:16;;;;;;;5.47;1.97;;;;;;;;;;5075656;28;20799;-61
2023/04/05 10:38:50;;;;;;;4.10;1.70;;;;;;;;;;5075518;28;20841;-61
2023/04/05 10:41:17;;;;;;;1.80;1.70;;;;;;;;;;5059134;28;20448;-61
2023/04/05 10:43:44;;;;;;;3.53;2.03;;;;;;;;;;5078965;28;20475;-61
2023/04/05 10:46:12;;;;;;;2.23;2.03;;;;;;;;;;5084176;28;21001;-60
2023/04/05 10:48:45;;;;;;;7.37;2.77;;;;;;;;;;5075155;28;20803;-60
2023/04/05 10:51:12;;;;;;;1.93;1.77;;;;;;;;;;5075181;28;21030;-60
2023/04/05 10:53:41;;;;;;;5.17;3.10;;;;;;;;;;5075186;28;20447;-60
2023/04/05 10:56:09;;;;;;;3.90;2.07;;;;;;;;;;5075422;28;20535;-61
2023/04/05 10:58:38;;;;;;;2.77;1.80;;;;;;;;;;5075439;28;20800;-61
2023/04/05 11:01:05;;;;;;;3.87;2.20;;;;;;;;;;5075109;28;20458;-61
2023/04/05 11:03:42;;;;;;;3.03;1.93;;;;;;;;;;5074998;28;20444;-61
2023/04/05 11:06:18;;;;;;;4.50;2.37;;;;;;;;;;5075014;28;20462;-61
2023/04/05 11:08:46;;;;;;;5.20;1.73;;;;;;;;;;5075436;28;20455;-61
2023/04/05 11:11:16;;;;;;;4.03;2.07;;;;;;;;;;5075062;28;20486;-61
2023/04/05 11:13:49;;;;;;;3.17;2.33;;;;;;;;;;5074985;28;20506;-61
2023/04/05 11:16:16;;;;;;;2.30;2.00;;;;;;;;;;5074452;28;20535;-61
2023/04/05 11:18:45;;;;;;;2.17;1.87;;;;;;;;;;5074749;28;20541;-61
2023/04/05 11:21:12;;;;;;;2.63;2.43;;;;;;;;;;5074883;28;20792;-61
2023/04/05 11:23:54;;;;;;;3.10;1.93;;;;;;;;;;5074829;28;20807;-61
2023/04/05 11:26:23;;;;;;;2.53;2.00;;;;;;;;;;5074537;28;20534;-61
2023/04/05 11:28:57;;;;;;;4.63;1.80;;;;;;;;;;5074554;28;20452;-61
2023/04/05 11:31:25;;;;;;;3.00;2.57;;;;;;;;;;5074489;28;20904;-61
2023/04/05 11:33:58;;;;;;;2.40;2.20;;;;;;;;;;5073909;28;21000;-61
2023/04/05 11:36:30;;;;;;;3.60;2.10;;;;;;;;;;5074857;28;20273;-61
2023/04/05 11:39:12;;;;;;;1.80;1.70;;;;;;;;;;5074593;28;20455;-60
2023/04/05 11:41:40;;;;;;;4.70;2.40;;;;;;;;;;5074384;28;20452;-60
2023/04/05 11:44:14;;;;;;;4.60;2.70;;;;;;;;;;5074413;28;20471;-60
2023/04/05 11:46:41;;;;;;;3.30;2.50;;;;;;;;;;5074516;28;20448;-60
2023/04/05 11:49:08;;;;;;;4.43;2.73;;;;;;;;;;5074421;28;20443;-60
2023/04/05 11:51:35;;;;;;;2.80;2.40;;;;;;;;;;5074332;28;20982;-60
2023/04/05 11:54:02;;;;;;;5.23;2.70;;;;;;;;;;5074157;28;20458;-60
2023/04/05 11:56:30;;;;;;;2.83;2.50;;;;;;;;;;5074130;28;20454;-60
2023/04/05 11:58:59;;;;;;;2.90;2.43;;;;;;;;;;5074187;28;20518;-60
2023/04/05 12:01:27;;;;;;;2.67;2.10;;;;;;;;;;5074295;28;20455;-59
2023/04/05 12:03:54;;;;;;;4.97;2.43;;;;;;;;;;5088736;28;20475;-59
2023/04/05 12:06:22;;;;;;;2.47;2.10;;;;;;;;;;5094048;28;20451;-59
2023/04/05 12:08:49;;;;;;;3.00;2.23;;;;;;;;;;5094309;28;20950;-59
2023/04/05 12:11:17;;;;;;;3.67;2.53;;;;;;;;;;5094071;28;20479;-60
2023/04/05 12:13:46;;;;;;;2.60;2.40;;;;;;;;;;5094136;28;20451;-60
2023/04/05 12:16:14;;;;;;;3.40;2.70;;;;;;;;;;5093479;28;20452;-60
2023/04/05 12:18:41;;;;;;;3.53;2.77;;;;;;;;;;5093996;28;20189;-61
2023/04/05 12:21:09;;;;;;;2.60;2.33;;;;;;;;;;5094144;28;20439;-61
2023/04/05 12:23:36;;;;;;;3.57;2.50;;;;;;;;;;5094025;28;20447;-60
2023/04/05 12:26:04;;;;;;;3.97;2.70;;;;;;;;;;5094071;28;20451;-61
2023/04/05 12:28:46;;;;;;;5.80;2.38;;;;;;;;;;5093272;28;20460;-62
2023/04/05 12:31:14;;;;;;;2.95;2.75;;;;;;;;;;5092950;28;20467;-61
2023/04/05 12:33:43;;;;;;;3.87;3.00;;;;;;;;;;5093962;28;20644;-61
2023/04/05 12:36:10;;;;;;;3.97;2.43;;;;;;;;;;5093880;28;20573;-60
2023/04/05 12:38:38;;;;;;;2.50;2.30;;;;;;;;;;5093660;28;20445;-60
2023/04/05 12:41:05;;;;;;;2.77;2.13;;;;;;;;;;5093581;28;20455;-61
2023/04/05 12:43:41;;;;;;;2.40;2.20;;;;;;;;;;5093180;28;20563;-61
2023/04/05 12:46:11;;;;;;;2.30;2.10;;;;;;;;;;5093549;28;20926;-60
2023/04/05 12:48:42;;;;;;;4.10;2.50;;;;;;;;;;5093266;28;20814;-61
2023/04/05 12:51:15;;;;;;;5.60;2.53;;;;;;;;;;5093191;28;20517;-60
2023/04/05 12:53:45;;;;;;;2.50;2.30;;;;;;;;;;5093471;28;20466;-60
2023/04/05 12:56:13;;;;;;;2.40;2.13;;;;;;;;;;5093706;28;20950;-61
2023/04/05 12:58:40;;;;;;;2.60;2.33;;;;;;;;;;5093219;28;20481;-61
2023/04/05 13:01:09;;;;;;;5.43;4.20;;;;;;;;;;5093379;28;20818;-61
2023/04/05 13:03:36;;;;;;;2.40;2.13;;;;;;;;;;5093240;28;20479;-60
2023/04/05 13:06:04;;;;;;;5.80;2.60;;;;;;;;;;5093196;28;20864;-60
2023/04/05 13:08:31;;;;;;;4.90;2.80;;;;;;;;;;5093108;28;20443;-60
2023/04/05 13:10:58;;;;;;;5.50;1.70;;;;;;;;;;5092925;28;20466;-60
2023/04/05 13:13:25;;;;;;;5.03;2.47;;;;;;;;;;5093253;28;20552;-60
2023/04/05 13:15:52;;;;;;;11.07;2.90;;;;;;;;;;5093200;28;20450;-60
2023/04/05 13:18:19;;;;;;;2.50;2.30;;;;;;;;;;5093115;28;20546;-60
2023/04/05 13:20:46;;;;;;;4.07;2.07;;;;;;;;;;5092984;28;20450;-60
2023/04/05 13:23:14;;;;;;;5.40;2.90;;;;;;;;;;5092942;28;20835;-60
2023/04/05 13:25:42;;;;;;;6.90;4.00;;;;;;;;;;5083391;28;20531;-59
2023/04/05 13:28:10;;;;;;;1.53;1.43;;;;;;;;;;5072847;28;20460;-60
2023/04/05 13:30:37;;;;;;;6.40;2.00;;;;;;;;;;5072780;28;20583;-60
2023/04/05 13:33:04;;;;;;;2.40;2.13;;;;;;;;;;5072690;28;20473;-59
2023/04/05 13:35:31;;;;;;;2.20;2.00;;;;;;;;;;5072595;28;20486;-59
2023/04/05 13:37:59;;;;;;;2.20;2.00;;;;;;;;;;5072494;28;20980;-60
2023/04/05 13:40:28;;;;;;;3.63;2.17;;;;;;;;;;5075275;28;20541;-59
2023/04/05 13:42:54;;;;;;;2.40;2.03;;;;;;;;;;5076855;28;20447;-59
2023/04/05 13:45:21;;;;;;;2.83;2.00;;;;;;;;;;5076309;28;20471;-60
2023/04/05 13:47:48;;;;;;;3.20;2.10;;;;;;;;;;5076622;28;20451;-60
2023/04/05 13:50:15;;;;;;;2.40;2.20;;;;;;;;;;5076497;28;20451;-60
2023/04/05 13:52:43;;;;;;;2.07;1.97;;;;;;;;;;5076520;28;20543;-60
2023/04/05 13:55:10;;;;;;;3.30;2.10;;;;;;;;;;5076676;28;20539;-60
2023/04/05 13:57:38;;;;;;;2.90;2.53;;;;;;;;;;5076752;28;20447;-60
2023/04/05 14:00:05;;;;;;;2.67;2.47;;;;;;;;;;5076293;28;20444;-60
2023/04/05 14:02:32;;;;;;;2.60;2.17;;;;;;;;;;5076500;28;20451;-59
2023/04/05 14:05:00;;;;;;;2.67;2.43;;;;;;;;;;5076232;28;20483;-60
2023/04/05 14:07:27;;;;;;;3.40;2.60;;;;;;;;;;5076410;28;20538;-59
2023/04/05 14:09:54;;;;;;;3.70;2.50;;;;;;;;;;5076455;28;20486;-59
2023/04/05 14:12:21;;;;;;;5.67;3.00;;;;;;;;;;5076260;28;20490;-59
2023/04/05 14:14:49;;;;;;;3.13;2.00;;;;;;;;;;5076089;28;20447;-63
2023/04/05 14:17:16;;;;;;;2.47;2.27;;;;;;;;;;5076126;28;20452;-63
2023/04/05 14:19:43;;;;;;;2.27;1.97;;;;;;;;;;5076080;28;20538;-63
2023/04/05 14:22:10;;;;;;;2.37;2.17;;;;;;;;;;5076149;28;20540;-63
2023/04/05 14:24:37;;;;;;;2.50;2.30;;;;;;;;;;5074451;28;20529;-63
2023/04/05 14:27:05;;;;;;;3.40;2.60;;;;;;;;;;5076048;28;20452;-63
2023/04/05 14:29:32;;;;;;;2.97;2.40;;;;;;;;;;5075932;28;20505;-63
2023/04/05 14:32:00;;;;;;;3.00;2.00;;;;;;;;;;5075840;28;21065;-63
2023/04/05 14:34:27;;;;;;;4.30;2.43;;;;;;;;;;5075451;28;20550;-63
2023/04/05 14:36:57;;;;;;;7.07;3.17;;;;;;;;;;5075691;28;21018;-63
2023/04/05 14:39:24;;;;;;;2.43;2.27;;;;;;;;;;5075646;28;20951;-64
2023/04/05 14:41:51;;;;;;;4.03;2.23;;;;;;;;;;5075703;28;20554;-63
2023/04/05 14:44:18;;;;;;;2.60;2.40;;;;;;;;;;5075329;28;20487;-63
2023/04/05 14:46:45;;;;;;;2.47;2.27;;;;;;;;;;5075379;28;20452;-63